sensor_id;sensor_type;location;lat;lon;timestamp;temperature;humidity
16970;DHT22;8601;48.718;8.992;2022-09-12T00:02:05;13.00;99.90
16970;DHT22;8601;48.718;8.992;2022-09-12T00:04:32;13.00;99.90
16970;DHT22;8601;48.718;8.992;2022-09-12T00:06:59;12.90;99.90
16970;DHT22;8601;48.718;8.992;2022-09-12T00:09:26;12.90;99.90
16970;DHT22;8601;48.718;8.992;2022-09-12T00:11:53;12.90;99.90
16970;DHT22;8601;48.718;8.992;2022-09-12T00:14:20;12.90;99.90
16970;DHT22;8601;48.718;8.992;2022-09-12T00:16:48;12.90;99.90
16970;DHT22;8601;48.718;8.992;2022-09-12T00:19:15;13.00;99.90
16970;DHT22;8601;48.718;8.992;2022-09-12T00:21:43;13.00;99.90
16970;DHT22;8601;48.718;8.992;2022-09-12T00:24:10;13.00;99.90
16970;DHT22;8601;48.718;8.992;2022-09-12T00:26:44;13.00;99.90
16970;DHT22;8601;48.718;8.992;2022-09-12T00:29:14;12.90;99.90
16970;DHT22;8601;48.718;8.992;2022-09-12T00:31:42;12.90;99.90
16970;DHT22;8601;48.718;8.992;2022-09-12T00:34:10;12.90;99.90
16970;DHT22;8601;48.718;8.992;2022-09-12T00:36:38;13.00;99.90
16970;DHT22;8601;48.718;8.992;2022-09-12T00:39:06;12.90;99.90
16970;DHT22;8601;48.718;8.992;2022-09-12T00:41:36;12.80;99.90
16970;DHT22;8601;48.718;8.992;2022-09-12T00:44:43;12.70;99.90
16970;DHT22;8601;48.718;8.992;2022-09-12T00:47:15;12.70;99.90
16970;DHT22;8601;48.718;8.992;2022-09-12T00:49:47;12.70;99.90
16970;DHT22;8601;48.718;8.992;2022-09-12T00:52:18;12.80;99.90
16970;DHT22;8601;48.718;8.992;2022-09-12T00:54:49;12.70;99.90
16970;DHT22;8601;48.718;8.992;2022-09-12T00:57:20;12.70;99.90
16970;DHT22;8601;48.718;8.992;2022-09-12T00:59:52;12.70;99.90
16970;DHT22;8601;48.718;8.992;2022-09-12T01:02:23;12.70;99.90
16970;DHT22;8601;48.718;8.992;2022-09-12T01:04:51;12.50;99.90
16970;DHT22;8601;48.718;8.992;2022-09-12T01:07:18;12.30;99.90
16970;DHT22;8601;48.718;8.992;2022-09-12T01:09:46;12.10;99.90
16970;DHT22;8601;48.718;8.992;2022-09-12T01:12:15;12.20;99.90
16970;DHT22;8601;48.718;8.992;2022-09-12T01:14:42;12.00;99.90
16970;DHT22;8601;48.718;8.992;2022-09-12T01:17:12;12.00;99.90
16970;DHT22;8601;48.718;8.992;2022-09-12T01:20:16;11.90;99.90
16970;DHT22;8601;48.718;8.992;2022-09-12T01:23:15;12.00;99.90
16970;DHT22;8601;48.718;8.992;2022-09-12T01:25:59;12.10;99.90
16970;DHT22;8601;48.718;8.992;2022-09-12T01:28:42;12.00;99.90
16970;DHT22;8601;48.718;8.992;2022-09-12T01:31:19;12.00;99.90
16970;DHT22;8601;48.718;8.992;2022-09-12T01:34:09;12.00;99.90
16970;DHT22;8601;48.718;8.992;2022-09-12T01:36:47;12.20;99.90
16970;DHT22;8601;48.718;8.992;2022-09-12T01:39:28;12.10;99.90
16970;DHT22;8601;48.718;8.992;2022-09-12T01:42:06;12.10;99.90
16970;DHT22;8601;48.718;8.992;2022-09-12T01:44:38;12.10;99.90
16970;DHT22;8601;48.718;8.992;2022-09-12T01:47:15;12.10;99.90
16970;DHT22;8601;48.718;8.992;2022-09-12T01:49:51;12.00;99.90
16970;DHT22;8601;48.718;8.992;2022-09-12T01:52:33;12.00;99.90
16970;DHT22;8601;48.718;8.992;2022-09-12T01:55:05;12.00;99.90
16970;DHT22;8601;48.718;8.992;2022-09-12T01:57:39;12.00;99.90
16970;DHT22;8601;48.718;8.992;2022-09-12T02:00:11;12.10;99.90
16970;DHT22;8601;48.718;8.992;2022-09-12T02:02:43;12.10;99.90
16970;DHT22;8601;48.718;8.992;2022-09-12T02:05:17;12.10;99.90
16970;DHT22;8601;48.718;8.992;2022-09-12T02:07:50;12.00;99.90
16970;DHT22;8601;48.718;8.992;2022-09-12T02:10:20;12.10;99.90
16970;DHT22;8601;48.718;8.992;2022-09-12T02:12:52;12.10;99.90
16970;DHT22;8601;48.718;8.992;2022-09-12T02:15:23;12.10;99.90
16970;DHT22;8601;48.718;8.992;2022-09-12T02:17:55;12.20;99.90
16970;DHT22;8601;48.718;8.992;2022-09-12T02:20:26;12.10;99.90
16970;DHT22;8601;48.718;8.992;2022-09-12T02:22:55;12.00;99.90
16970;DHT22;8601;48.718;8.992;2022-09-12T02:25:24;12.00;99.90
16970;DHT22;8601;48.718;8.992;2022-09-12T02:28:00;11.90;99.90
16970;DHT22;8601;48.718;8.992;2022-09-12T02:30:31;12.00;99.90
16970;DHT22;8601;48.718;8.992;2022-09-12T02:33:06;11.90;99.90
16970;DHT22;8601;48.718;8.992;2022-09-12T02:35:39;11.90;99.90
16970;DHT22;8601;48.718;8.992;2022-09-12T02:38:12;11.90;99.90
16970;DHT22;8601;48.718;8.992;2022-09-12T02:40:40;11.90;99.90
16970;DHT22;8601;48.718;8.992;2022-09-12T02:43:08;12.00;99.90
16970;DHT22;8601;48.718;8.992;2022-09-12T02:45:35;12.10;99.90
16970;DHT22;8601;48.718;8.992;2022-09-12T02:48:08;12.00;99.90
16970;DHT22;8601;48.718;8.992;2022-09-12T02:50:36;11.90;99.90
16970;DHT22;8601;48.718;8.992;2022-09-12T02:53:04;11.90;99.90
16970;DHT22;8601;48.718;8.992;2022-09-12T02:55:34;11.80;99.90
16970;DHT22;8601;48.718;8.992;2022-09-12T02:58:03;11.80;99.90
16970;DHT22;8601;48.718;8.992;2022-09-12T03:00:33;11.70;99.90
16970;DHT22;8601;48.718;8.992;2022-09-12T03:03:24;11.70;99.90
16970;DHT22;8601;48.718;8.992;2022-09-12T03:05:56;11.80;99.90
16970;DHT22;8601;48.718;8.992;2022-09-12T03:08:35;11.80;99.90
16970;DHT22;8601;48.718;8.992;2022-09-12T03:11:24;11.80;99.90
16970;DHT22;8601;48.718;8.992;2022-09-12T03:13:59;11.80;99.90
16970;DHT22;8601;48.718;8.992;2022-09-12T03:16:37;11.80;99.90
16970;DHT22;8601;48.718;8.992;2022-09-12T03:19:18;11.80;99.90
16970;DHT22;8601;48.718;8.992;2022-09-12T03:21:57;11.80;99.90
16970;DHT22;8601;48.718;8.992;2022-09-12T03:24:30;11.70;99.90
16970;DHT22;8601;48.718;8.992;2022-09-12T03:27:03;11.70;99.90
16970;DHT22;8601;48.718;8.992;2022-09-12T03:29:32;11.70;99.90
16970;DHT22;8601;48.718;8.992;2022-09-12T03:31:59;11.60;99.90
16970;DHT22;8601;48.718;8.992;2022-09-12T03:34:27;11.60;99.90
16970;DHT22;8601;48.718;8.992;2022-09-12T03:36:55;11.60;99.90
16970;DHT22;8601;48.718;8.992;2022-09-12T03:39:23;11.70;99.90
16970;DHT22;8601;48.718;8.992;2022-09-12T03:41:51;11.60;99.90
16970;DHT22;8601;48.718;8.992;2022-09-12T03:44:19;11.70;99.90
16970;DHT22;8601;48.718;8.992;2022-09-12T03:46:46;11.70;99.90
16970;DHT22;8601;48.718;8.992;2022-09-12T03:49:20;11.70;99.90
16970;DHT22;8601;48.718;8.992;2022-09-12T03:51:48;11.60;99.90
16970;DHT22;8601;48.718;8.992;2022-09-12T03:54:16;11.60;99.90
16970;DHT22;8601;48.718;8.992;2022-09-12T03:56:42;11.60;99.90
16970;DHT22;8601;48.718;8.992;2022-09-12T03:59:18;11.60;99.90
16970;DHT22;8601;48.718;8.992;2022-09-12T04:01:46;11.50;99.90
16970;DHT22;8601;48.718;8.992;2022-09-12T04:04:13;11.50;99.90
16970;DHT22;8601;48.718;8.992;2022-09-12T04:06:40;11.40;99.90
16970;DHT22;8601;48.718;8.992;2022-09-12T04:09:09;11.40;99.90
16970;DHT22;8601;48.718;8.992;2022-09-12T04:11:36;11.40;99.90
16970;DHT22;8601;48.718;8.992;2022-09-12T04:14:03;11.30;99.90
16970;DHT22;8601;48.718;8.992;2022-09-12T04:16:30;11.30;99.90
16970;DHT22;8601;48.718;8.992;2022-09-12T04:18:58;11.30;99.90
16970;DHT22;8601;48.718;8.992;2022-09-12T04:21:24;11.20;99.90
16970;DHT22;8601;48.718;8.992;2022-09-12T04:23:51;11.30;99.90
16970;DHT22;8601;48.718;8.992;2022-09-12T04:26:28;11.30;99.90
16970;DHT22;8601;48.718;8.992;2022-09-12T04:28:56;11.30;99.90
16970;DHT22;8601;48.718;8.992;2022-09-12T04:31:25;11.30;99.90
16970;DHT22;8601;48.718;8.992;2022-09-12T04:33:59;11.30;99.90
16970;DHT22;8601;48.718;8.992;2022-09-12T04:36:30;11.30;99.90
16970;DHT22;8601;48.718;8.992;2022-09-12T04:38:59;11.30;99.90
16970;DHT22;8601;48.718;8.992;2022-09-12T04:41:29;11.40;99.90
16970;DHT22;8601;48.718;8.992;2022-09-12T04:43:58;11.30;99.90
16970;DHT22;8601;48.718;8.992;2022-09-12T04:46:27;11.40;99.90
16970;DHT22;8601;48.718;8.992;2022-09-12T04:48:54;11.30;99.90
16970;DHT22;8601;48.718;8.992;2022-09-12T04:51:23;11.30;99.90
16970;DHT22;8601;48.718;8.992;2022-09-12T04:53:53;11.30;99.90
16970;DHT22;8601;48.718;8.992;2022-09-12T04:56:22;11.30;99.90
16970;DHT22;8601;48.718;8.992;2022-09-12T04:58:52;11.30;99.90
16970;DHT22;8601;48.718;8.992;2022-09-12T05:01:20;11.30;99.90
16970;DHT22;8601;48.718;8.992;2022-09-12T05:03:48;11.30;99.90
16970;DHT22;8601;48.718;8.992;2022-09-12T05:06:17;11.20;99.90
16970;DHT22;8601;48.718;8.992;2022-09-12T05:08:44;11.20;99.90
16970;DHT22;8601;48.718;8.992;2022-09-12T05:11:13;11.20;99.90
16970;DHT22;8601;48.718;8.992;2022-09-12T05:13:41;11.10;99.90
16970;DHT22;8601;48.718;8.992;2022-09-12T05:16:11;11.10;99.90
16970;DHT22;8601;48.718;8.992;2022-09-12T05:18:40;11.00;99.90
16970;DHT22;8601;48.718;8.992;2022-09-12T05:21:11;11.00;99.90
16970;DHT22;8601;48.718;8.992;2022-09-12T05:23:38;11.10;99.90
16970;DHT22;8601;48.718;8.992;2022-09-12T05:26:06;11.10;99.90
16970;DHT22;8601;48.718;8.992;2022-09-12T05:28:35;11.10;99.90
16970;DHT22;8601;48.718;8.992;2022-09-12T05:31:04;11.10;99.90
16970;DHT22;8601;48.718;8.992;2022-09-12T05:33:34;11.10;99.90
16970;DHT22;8601;48.718;8.992;2022-09-12T05:36:02;11.10;99.90
16970;DHT22;8601;48.718;8.992;2022-09-12T05:38:29;11.20;99.90
16970;DHT22;8601;48.718;8.992;2022-09-12T05:41:02;11.20;99.90
16970;DHT22;8601;48.718;8.992;2022-09-12T05:43:30;11.20;99.90
16970;DHT22;8601;48.718;8.992;2022-09-12T05:46:00;11.30;99.90
16970;DHT22;8601;48.718;8.992;2022-09-12T05:48:28;11.30;99.90
16970;DHT22;8601;48.718;8.992;2022-09-12T05:51:00;11.30;99.90
16970;DHT22;8601;48.718;8.992;2022-09-12T05:53:28;11.30;99.90
16970;DHT22;8601;48.718;8.992;2022-09-12T05:56:03;11.40;99.90
16970;DHT22;8601;48.718;8.992;2022-09-12T05:58:31;11.40;99.90
16970;DHT22;8601;48.718;8.992;2022-09-12T06:01:01;11.50;99.90
16970;DHT22;8601;48.718;8.992;2022-09-12T06:03:30;11.50;99.90
16970;DHT22;8601;48.718;8.992;2022-09-12T06:06:01;11.50;99.90
16970;DHT22;8601;48.718;8.992;2022-09-12T06:08:28;11.50;99.90
16970;DHT22;8601;48.718;8.992;2022-09-12T06:10:58;11.50;99.90
16970;DHT22;8601;48.718;8.992;2022-09-12T06:13:25;11.60;99.90
16970;DHT22;8601;48.718;8.992;2022-09-12T06:15:52;11.60;99.90
16970;DHT22;8601;48.718;8.992;2022-09-12T06:18:19;11.60;99.90
16970;DHT22;8601;48.718;8.992;2022-09-12T06:20:46;11.60;99.90
16970;DHT22;8601;48.718;8.992;2022-09-12T06:23:14;11.70;99.90
16970;DHT22;8601;48.718;8.992;2022-09-12T06:25:48;11.70;99.90
16970;DHT22;8601;48.718;8.992;2022-09-12T06:28:15;11.80;99.90
16970;DHT22;8601;48.718;8.992;2022-09-12T06:30:42;11.80;99.90
16970;DHT22;8601;48.718;8.992;2022-09-12T06:33:09;11.80;99.90
16970;DHT22;8601;48.718;8.992;2022-09-12T06:35:36;11.90;99.90
16970;DHT22;8601;48.718;8.992;2022-09-12T06:38:04;12.00;99.90
16970;DHT22;8601;48.718;8.992;2022-09-12T06:40:32;12.00;99.90
16970;DHT22;8601;48.718;8.992;2022-09-12T06:42:59;12.00;99.90
16970;DHT22;8601;48.718;8.992;2022-09-12T06:45:26;12.00;99.90
16970;DHT22;8601;48.718;8.992;2022-09-12T06:47:54;12.10;99.90
16970;DHT22;8601;48.718;8.992;2022-09-12T06:50:21;12.20;99.90
16970;DHT22;8601;48.718;8.992;2022-09-12T06:52:48;12.20;99.90
16970;DHT22;8601;48.718;8.992;2022-09-12T06:55:15;12.30;99.90
16970;DHT22;8601;48.718;8.992;2022-09-12T06:57:44;12.40;99.90
16970;DHT22;8601;48.718;8.992;2022-09-12T07:00:12;12.40;99.90
16970;DHT22;8601;48.718;8.992;2022-09-12T07:02:53;12.50;99.90
16970;DHT22;8601;48.718;8.992;2022-09-12T07:05:21;12.50;99.90
16970;DHT22;8601;48.718;8.992;2022-09-12T07:07:48;12.60;99.90
16970;DHT22;8601;48.718;8.992;2022-09-12T07:10:15;12.70;99.90
16970;DHT22;8601;48.718;8.992;2022-09-12T07:12:46;12.80;99.90
16970;DHT22;8601;48.718;8.992;2022-09-12T07:15:13;12.90;99.90
16970;DHT22;8601;48.718;8.992;2022-09-12T07:17:40;13.00;99.90
16970;DHT22;8601;48.718;8.992;2022-09-12T07:20:08;13.10;99.90
16970;DHT22;8601;48.718;8.992;2022-09-12T07:22:34;13.20;99.90
16970;DHT22;8601;48.718;8.992;2022-09-12T07:25:04;13.30;99.90
16970;DHT22;8601;48.718;8.992;2022-09-12T07:27:31;13.40;99.90
16970;DHT22;8601;48.718;8.992;2022-09-12T07:30:10;13.50;99.90
16970;DHT22;8601;48.718;8.992;2022-09-12T07:32:37;13.60;99.90
16970;DHT22;8601;48.718;8.992;2022-09-12T07:35:05;13.70;99.90
16970;DHT22;8601;48.718;8.992;2022-09-12T07:37:32;13.80;99.90
16970;DHT22;8601;48.718;8.992;2022-09-12T07:39:59;13.90;99.90
16970;DHT22;8601;48.718;8.992;2022-09-12T07:42:27;14.00;99.90
16970;DHT22;8601;48.718;8.992;2022-09-12T07:44:54;14.10;99.90
16970;DHT22;8601;48.718;8.992;2022-09-12T07:47:22;14.30;99.90
16970;DHT22;8601;48.718;8.992;2022-09-12T07:50:00;14.40;99.90
16970;DHT22;8601;48.718;8.992;2022-09-12T07:52:27;14.60;99.90
16970;DHT22;8601;48.718;8.992;2022-09-12T07:54:54;14.80;99.90
16970;DHT22;8601;48.718;8.992;2022-09-12T07:57:20;14.90;99.90
16970;DHT22;8601;48.718;8.992;2022-09-12T07:59:47;15.00;99.90
16970;DHT22;8601;48.718;8.992;2022-09-12T08:02:14;15.70;99.90
16970;DHT22;8601;48.718;8.992;2022-09-12T08:04:43;16.50;99.90
16970;DHT22;8601;48.718;8.992;2022-09-12T08:07:10;16.30;99.90
16970;DHT22;8601;48.718;8.992;2022-09-12T08:09:37;16.20;99.90
16970;DHT22;8601;48.718;8.992;2022-09-12T08:12:04;16.10;99.90
16970;DHT22;8601;48.718;8.992;2022-09-12T08:14:32;16.10;99.90
16970;DHT22;8601;48.718;8.992;2022-09-12T08:16:59;16.10;99.90
16970;DHT22;8601;48.718;8.992;2022-09-12T08:19:26;16.10;99.90
16970;DHT22;8601;48.718;8.992;2022-09-12T08:21:54;16.30;99.90
16970;DHT22;8601;48.718;8.992;2022-09-12T08:24:21;16.40;99.90
16970;DHT22;8601;48.718;8.992;2022-09-12T08:26:49;16.50;99.90
16970;DHT22;8601;48.718;8.992;2022-09-12T08:29:16;16.70;99.90
16970;DHT22;8601;48.718;8.992;2022-09-12T08:31:44;16.80;99.90
16970;DHT22;8601;48.718;8.992;2022-09-12T08:34:11;17.00;99.90
16970;DHT22;8601;48.718;8.992;2022-09-12T08:36:38;17.10;99.90
16970;DHT22;8601;48.718;8.992;2022-09-12T08:39:07;17.20;99.90
16970;DHT22;8601;48.718;8.992;2022-09-12T08:41:36;17.30;99.90
16970;DHT22;8601;48.718;8.992;2022-09-12T08:44:18;17.40;99.90
16970;DHT22;8601;48.718;8.992;2022-09-12T08:47:04;17.40;99.90
16970;DHT22;8601;48.718;8.992;2022-09-12T08:49:34;17.60;99.90
16970;DHT22;8601;48.718;8.992;2022-09-12T08:52:08;17.70;99.90
16970;DHT22;8601;48.718;8.992;2022-09-12T08:55:00;17.90;99.90
16970;DHT22;8601;48.718;8.992;2022-09-12T08:57:27;18.10;99.90
16970;DHT22;8601;48.718;8.992;2022-09-12T08:59:54;18.30;99.90
16970;DHT22;8601;48.718;8.992;2022-09-12T09:05:47;18.80;99.90
16970;DHT22;8601;48.718;8.992;2022-09-12T09:08:23;19.10;99.90
16970;DHT22;8601;48.718;8.992;2022-09-12T09:11:03;19.50;99.90
16970;DHT22;8601;48.718;8.992;2022-09-12T09:13:42;19.90;99.90
16970;DHT22;8601;48.718;8.992;2022-09-12T09:16:33;20.20;99.90
16970;DHT22;8601;48.718;8.992;2022-09-12T09:19:03;20.50;98.50
16970;DHT22;8601;48.718;8.992;2022-09-12T09:21:34;20.80;99.60
16970;DHT22;8601;48.718;8.992;2022-09-12T09:24:07;21.10;96.50
16970;DHT22;8601;48.718;8.992;2022-09-12T09:26:42;21.40;97.30
16970;DHT22;8601;48.718;8.992;2022-09-12T09:29:15;21.60;94.40
16970;DHT22;8601;48.718;8.992;2022-09-12T09:31:45;21.50;94.80
16970;DHT22;8601;48.718;8.992;2022-09-12T09:34:17;21.80;93.20
16970;DHT22;8601;48.718;8.992;2022-09-12T09:36:48;22.00;91.70
16970;DHT22;8601;48.718;8.992;2022-09-12T09:39:26;22.00;91.60
16970;DHT22;8601;48.718;8.992;2022-09-12T09:42:10;22.40;91.20
16970;DHT22;8601;48.718;8.992;2022-09-12T09:44:38;22.70;90.00
16970;DHT22;8601;48.718;8.992;2022-09-12T09:47:09;23.00;88.90
16970;DHT22;8601;48.718;8.992;2022-09-12T09:49:38;22.90;84.90
16970;DHT22;8601;48.718;8.992;2022-09-12T09:52:17;22.90;84.80
16970;DHT22;8601;48.718;8.992;2022-09-12T09:54:49;23.10;83.10
16970;DHT22;8601;48.718;8.992;2022-09-12T09:57:39;23.10;81.90
16970;DHT22;8601;48.718;8.992;2022-09-12T10:00:21;23.30;79.80
16970;DHT22;8601;48.718;8.992;2022-09-12T10:03:02;23.20;79.30
16970;DHT22;8601;48.718;8.992;2022-09-12T10:05:31;23.30;78.00
16970;DHT22;8601;48.718;8.992;2022-09-12T10:07:59;23.30;75.70
16970;DHT22;8601;48.718;8.992;2022-09-12T10:10:26;23.20;75.50
16970;DHT22;8601;48.718;8.992;2022-09-12T10:13:06;23.20;73.90
16970;DHT22;8601;48.718;8.992;2022-09-12T10:15:34;23.40;71.80
16970;DHT22;8601;48.718;8.992;2022-09-12T10:18:02;23.70;71.80
16970;DHT22;8601;48.718;8.992;2022-09-12T10:20:33;23.60;67.40
16970;DHT22;8601;48.718;8.992;2022-09-12T10:23:05;23.50;69.00
16970;DHT22;8601;48.718;8.992;2022-09-12T10:25:44;23.60;69.80
16970;DHT22;8601;48.718;8.992;2022-09-12T10:28:22;23.90;68.80
16970;DHT22;8601;48.718;8.992;2022-09-12T10:30:52;23.80;65.40
16970;DHT22;8601;48.718;8.992;2022-09-12T10:33:22;23.90;62.90
16970;DHT22;8601;48.718;8.992;2022-09-12T10:35:52;24.00;64.70
16970;DHT22;8601;48.718;8.992;2022-09-12T10:38:22;24.00;63.20
16970;DHT22;8601;48.718;8.992;2022-09-12T10:40:55;24.00;63.50
16970;DHT22;8601;48.718;8.992;2022-09-12T10:43:29;23.80;64.50
16970;DHT22;8601;48.718;8.992;2022-09-12T10:45:57;23.90;64.60
16970;DHT22;8601;48.718;8.992;2022-09-12T10:48:27;23.90;65.10
16970;DHT22;8601;48.718;8.992;2022-09-12T10:50:56;24.10;65.20
16970;DHT22;8601;48.718;8.992;2022-09-12T10:53:24;24.20;62.20
16970;DHT22;8601;48.718;8.992;2022-09-12T10:56:01;23.70;60.00
16970;DHT22;8601;48.718;8.992;2022-09-12T10:58:51;23.80;62.90
16970;DHT22;8601;48.718;8.992;2022-09-12T11:01:34;24.10;61.90
16970;DHT22;8601;48.718;8.992;2022-09-12T11:04:22;24.30;60.00
16970;DHT22;8601;48.718;8.992;2022-09-12T11:06:57;24.40;58.10
16970;DHT22;8601;48.718;8.992;2022-09-12T11:09:31;24.60;60.90
16970;DHT22;8601;48.718;8.992;2022-09-12T11:12:07;24.90;61.40
16970;DHT22;8601;48.718;8.992;2022-09-12T11:14:52;25.00;61.90
16970;DHT22;8601;48.718;8.992;2022-09-12T11:17:32;25.00;60.40
16970;DHT22;8601;48.718;8.992;2022-09-12T11:23:18;24.50;58.10
16970;DHT22;8601;48.718;8.992;2022-09-12T11:26:16;24.60;59.70
16970;DHT22;8601;48.718;8.992;2022-09-12T11:28:50;24.90;58.20
16970;DHT22;8601;48.718;8.992;2022-09-12T11:31:39;24.90;56.40
16970;DHT22;8601;48.718;8.992;2022-09-12T11:34:19;24.80;58.20
16970;DHT22;8601;48.718;8.992;2022-09-12T11:36:58;24.90;58.00
16970;DHT22;8601;48.718;8.992;2022-09-12T11:39:32;24.70;57.30
16970;DHT22;8601;48.718;8.992;2022-09-12T11:42:05;24.70;57.60
16970;DHT22;8601;48.718;8.992;2022-09-12T11:44:37;24.90;57.70
16970;DHT22;8601;48.718;8.992;2022-09-12T11:47:10;25.00;56.50
16970;DHT22;8601;48.718;8.992;2022-09-12T11:49:40;24.90;57.40
16970;DHT22;8601;48.718;8.992;2022-09-12T11:52:14;24.80;57.60
16970;DHT22;8601;48.718;8.992;2022-09-12T11:54:43;24.90;55.40
16970;DHT22;8601;48.718;8.992;2022-09-12T11:57:16;25.10;57.80
16970;DHT22;8601;48.718;8.992;2022-09-12T11:59:48;25.20;57.60
16970;DHT22;8601;48.718;8.992;2022-09-12T12:02:24;24.90;56.50
16970;DHT22;8601;48.718;8.992;2022-09-12T12:05:04;25.20;56.70
16970;DHT22;8601;48.718;8.992;2022-09-12T12:07:40;25.00;55.80
16970;DHT22;8601;48.718;8.992;2022-09-12T12:10:22;24.80;57.00
16970;DHT22;8601;48.718;8.992;2022-09-12T12:12:51;24.90;57.70
16970;DHT22;8601;48.718;8.992;2022-09-12T12:15:20;24.90;56.20
16970;DHT22;8601;48.718;8.992;2022-09-12T12:18:01;25.20;57.10
16970;DHT22;8601;48.718;8.992;2022-09-12T12:20:28;25.20;55.40
16970;DHT22;8601;48.718;8.992;2022-09-12T12:22:56;25.20;57.10
16970;DHT22;8601;48.718;8.992;2022-09-12T12:25:25;25.30;56.30
16970;DHT22;8601;48.718;8.992;2022-09-12T12:28:04;25.20;56.50
16970;DHT22;8601;48.718;8.992;2022-09-12T12:30:59;25.30;56.70
16970;DHT22;8601;48.718;8.992;2022-09-12T12:34:04;25.10;55.10
16970;DHT22;8601;48.718;8.992;2022-09-12T12:36:52;25.10;56.00
16970;DHT22;8601;48.718;8.992;2022-09-12T12:39:55;25.20;56.50
16970;DHT22;8601;48.718;8.992;2022-09-12T12:45:57;25.20;55.70
16970;DHT22;8601;48.718;8.992;2022-09-12T12:48:27;25.20;55.80
16970;DHT22;8601;48.718;8.992;2022-09-12T12:51:21;25.20;56.90
16970;DHT22;8601;48.718;8.992;2022-09-12T12:53:52;25.20;56.90
16970;DHT22;8601;48.718;8.992;2022-09-12T12:56:27;25.40;57.10
16970;DHT22;8601;48.718;8.992;2022-09-12T12:58:59;25.50;56.40
16970;DHT22;8601;48.718;8.992;2022-09-12T13:01:28;25.60;55.30
16970;DHT22;8601;48.718;8.992;2022-09-12T13:03:58;25.70;55.30
16970;DHT22;8601;48.718;8.992;2022-09-12T13:06:32;25.40;54.00
16970;DHT22;8601;48.718;8.992;2022-09-12T13:09:02;25.00;55.40
16970;DHT22;8601;48.718;8.992;2022-09-12T13:11:33;25.10;55.30
16970;DHT22;8601;48.718;8.992;2022-09-12T13:14:02;25.20;54.80
16970;DHT22;8601;48.718;8.992;2022-09-12T13:16:33;25.20;54.30
16970;DHT22;8601;48.718;8.992;2022-09-12T13:19:04;24.90;54.40
16970;DHT22;8601;48.718;8.992;2022-09-12T13:21:33;25.00;55.10
16970;DHT22;8601;48.718;8.992;2022-09-12T13:24:02;25.20;55.90
16970;DHT22;8601;48.718;8.992;2022-09-12T13:26:33;25.40;54.60
16970;DHT22;8601;48.718;8.992;2022-09-12T13:29:11;25.30;53.20
16970;DHT22;8601;48.718;8.992;2022-09-12T13:31:39;25.20;52.60
16970;DHT22;8601;48.718;8.992;2022-09-12T13:34:08;25.20;52.10
16970;DHT22;8601;48.718;8.992;2022-09-12T13:39:43;25.30;51.60
16970;DHT22;8601;48.718;8.992;2022-09-12T13:42:39;25.60;52.00
16970;DHT22;8601;48.718;8.992;2022-09-12T13:45:12;25.60;50.00
16970;DHT22;8601;48.718;8.992;2022-09-12T13:47:41;25.50;50.40
16970;DHT22;8601;48.718;8.992;2022-09-12T13:50:15;25.60;52.90
16970;DHT22;8601;48.718;8.992;2022-09-12T13:52:46;25.50;51.30
16970;DHT22;8601;48.718;8.992;2022-09-12T13:55:27;25.30;51.30
16970;DHT22;8601;48.718;8.992;2022-09-12T13:57:59;25.20;52.30
16970;DHT22;8601;48.718;8.992;2022-09-12T14:00:28;25.30;52.90
16970;DHT22;8601;48.718;8.992;2022-09-12T14:02:57;25.50;53.00
16970;DHT22;8601;48.718;8.992;2022-09-12T14:05:39;25.50;52.00
16970;DHT22;8601;48.718;8.992;2022-09-12T14:08:12;25.30;53.40
16970;DHT22;8601;48.718;8.992;2022-09-12T14:10:42;25.30;53.00
16970;DHT22;8601;48.718;8.992;2022-09-12T14:13:11;25.40;52.40
16970;DHT22;8601;48.718;8.992;2022-09-12T14:15:43;25.40;52.50
16970;DHT22;8601;48.718;8.992;2022-09-12T14:18:21;25.20;52.80
16970;DHT22;8601;48.718;8.992;2022-09-12T14:20:49;25.20;53.50
16970;DHT22;8601;48.718;8.992;2022-09-12T14:23:24;25.30;55.10
16970;DHT22;8601;48.718;8.992;2022-09-12T14:25:53;25.50;54.00
16970;DHT22;8601;48.718;8.992;2022-09-12T14:28:21;25.50;52.10
16970;DHT22;8601;48.718;8.992;2022-09-12T14:31:02;25.50;51.90
16970;DHT22;8601;48.718;8.992;2022-09-12T14:33:45;25.50;51.60
16970;DHT22;8601;48.718;8.992;2022-09-12T14:36:19;25.20;52.60
16970;DHT22;8601;48.718;8.992;2022-09-12T14:38:52;25.20;51.80
16970;DHT22;8601;48.718;8.992;2022-09-12T14:41:26;25.10;51.80
16970;DHT22;8601;48.718;8.992;2022-09-12T14:43:57;25.20;51.70
16970;DHT22;8601;48.718;8.992;2022-09-12T14:46:29;25.50;50.00
16970;DHT22;8601;48.718;8.992;2022-09-12T14:49:00;25.50;48.60
16970;DHT22;8601;48.718;8.992;2022-09-12T14:51:31;25.60;49.60
16970;DHT22;8601;48.718;8.992;2022-09-12T14:54:00;25.30;48.20
16970;DHT22;8601;48.718;8.992;2022-09-12T14:56:38;25.50;48.20
16970;DHT22;8601;48.718;8.992;2022-09-12T14:59:26;25.50;47.70
16970;DHT22;8601;48.718;8.992;2022-09-12T15:02:19;25.60;49.70
16970;DHT22;8601;48.718;8.992;2022-09-12T15:04:52;25.40;45.60
16970;DHT22;8601;48.718;8.992;2022-09-12T15:07:27;25.40;47.90
16970;DHT22;8601;48.718;8.992;2022-09-12T15:09:57;25.30;48.40
16970;DHT22;8601;48.718;8.992;2022-09-12T15:12:25;25.40;49.20
16970;DHT22;8601;48.718;8.992;2022-09-12T15:15:03;25.30;48.20
16970;DHT22;8601;48.718;8.992;2022-09-12T15:17:32;25.40;48.10
16970;DHT22;8601;48.718;8.992;2022-09-12T15:19:59;25.20;48.70
16970;DHT22;8601;48.718;8.992;2022-09-12T15:22:26;25.30;47.80
16970;DHT22;8601;48.718;8.992;2022-09-12T15:24:53;25.30;47.40
16970;DHT22;8601;48.718;8.992;2022-09-12T15:27:34;25.20;48.70
16970;DHT22;8601;48.718;8.992;2022-09-12T15:30:05;25.00;47.10
16970;DHT22;8601;48.718;8.992;2022-09-12T15:32:33;25.00;48.40
16970;DHT22;8601;48.718;8.992;2022-09-12T15:35:00;25.00;48.20
16970;DHT22;8601;48.718;8.992;2022-09-12T15:37:27;24.90;46.90
16970;DHT22;8601;48.718;8.992;2022-09-12T15:39:55;24.90;46.70
16970;DHT22;8601;48.718;8.992;2022-09-12T15:42:27;24.80;46.70
16970;DHT22;8601;48.718;8.992;2022-09-12T15:44:57;24.80;47.60
16970;DHT22;8601;48.718;8.992;2022-09-12T15:47:24;24.80;49.00
16970;DHT22;8601;48.718;8.992;2022-09-12T15:49:59;24.60;47.70
16970;DHT22;8601;48.718;8.992;2022-09-12T15:52:26;24.50;48.20
16970;DHT22;8601;48.718;8.992;2022-09-12T15:54:52;24.50;49.00
16970;DHT22;8601;48.718;8.992;2022-09-12T15:57:20;24.40;48.50
16970;DHT22;8601;48.718;8.992;2022-09-12T15:59:46;24.40;49.80
16970;DHT22;8601;48.718;8.992;2022-09-12T16:02:15;24.30;49.60
16970;DHT22;8601;48.718;8.992;2022-09-12T16:04:42;24.20;49.70
16970;DHT22;8601;48.718;8.992;2022-09-12T16:07:10;24.20;50.10
16970;DHT22;8601;48.718;8.992;2022-09-12T16:09:37;24.10;50.00
16970;DHT22;8601;48.718;8.992;2022-09-12T16:12:04;24.00;50.40
16970;DHT22;8601;48.718;8.992;2022-09-12T16:14:31;24.00;50.90
16970;DHT22;8601;48.718;8.992;2022-09-12T16:16:57;24.00;51.40
16970;DHT22;8601;48.718;8.992;2022-09-12T16:19:26;23.90;51.90
16970;DHT22;8601;48.718;8.992;2022-09-12T16:21:54;23.80;51.50
16970;DHT22;8601;48.718;8.992;2022-09-12T16:24:21;23.80;52.40
16970;DHT22;8601;48.718;8.992;2022-09-12T16:26:48;23.70;52.30
16970;DHT22;8601;48.718;8.992;2022-09-12T16:29:25;23.60;53.00